TimeEDT,TemperatureF,Dew PointF,Humidity,Sea Level PressureIn,VisibilityMPH,Wind Direction,Wind SpeedMPH,Gust SpeedMPH,PrecipitationIn,Events,Conditions,WindDirDegrees,DateUTC
12:56 AM,75.9,69.1,79,29.85,8.0,Calm,Calm,-,N/A,,Clear,0,2013-09-13 04:56:00
1:56 AM,75.0,69.1,82,29.83,8.0,Calm,Calm,-,N/A,,Partly Cloudy,0,2013-09-13 05:56:00
2:56 AM,73.9,69.1,85,29.81,8.0,WSW,4.6,-,N/A,,Partly Cloudy,250,2013-09-13 06:56:00
3:56 AM,73.0,69.1,87,29.80,8.0,West,4.6,-,N/A,,Partly Cloudy,270,2013-09-13 07:56:00
4:56 AM,73.0,69.1,87,29.80,8.0,West,3.5,-,N/A,,Scattered Clouds,260,2013-09-13 08:56:00
5:56 AM,73.0,69.1,87,29.81,8.0,Calm,Calm,-,N/A,,Scattered Clouds,0,2013-09-13 09:56:00
6:56 AM,72.0,69.1,91,29.81,6.0,Calm,Calm,-,N/A,,Mostly Cloudy,0,2013-09-13 10:56:00
7:56 AM,73.0,69.1,87,29.82,5.0,WSW,5.8,-,N/A,,Scattered Clouds,250,2013-09-13 11:56:00
8:56 AM,79.0,71.1,77,29.83,7.0,WNW,4.6,-,N/A,,Clear,300,2013-09-13 12:56:00
9:56 AM,82.9,69.1,63,29.83,10.0,NE,6.9,-,N/A,,Partly Cloudy,40,2013-09-13 13:56:00
10:56 AM,84.0,66.9,56,29.83,10.0,NE,6.9,-,N/A,,Scattered Clouds,40,2013-09-13 14:56:00
11:56 AM,86.0,66.9,53,29.83,10.0,Variable,4.6,-,N/A,,Scattered Clouds,0,2013-09-13 15:56:00
12:56 PM,88.0,66.0,48,29.82,10.0,East,5.8,-,N/A,,Mostly Cloudy,90,2013-09-13 16:56:00
1:56 PM,91.0,64.0,41,29.80,10.0,NE,5.8,-,N/A,,Scattered Clouds,50,2013-09-13 17:56:00
2:56 PM,90.0,61.0,38,29.78,10.0,Calm,Calm,-,N/A,,Scattered Clouds,0,2013-09-13 18:56:00
3:56 PM,90.0,61.0,38,29.77,10.0,NW,10.4,-,N/A,,Scattered Clouds,320,2013-09-13 19:56:00
4:56 PM,90.0,59.0,35,29.76,10.0,North,9.2,-,N/A,,Scattered Clouds,350,2013-09-13 20:56:00
5:56 PM,89.1,60.1,38,29.76,10.0,NW,5.8,-,N/A,,Scattered Clouds,310,2013-09-13 21:56:00
6:56 PM,87.1,61.0,41,29.77,10.0,North,4.6,-,N/A,,Scattered Clouds,360,2013-09-13 22:56:00
7:56 PM,84.9,61.0,44,29.79,10.0,Calm,Calm,-,N/A,,Mostly Cloudy,0,2013-09-13 23:56:00
8:56 PM,82.9,60.1,46,29.81,10.0,Calm,Calm,-,N/A,,Scattered Clouds,0,2013-09-14 00:56:00
9:56 PM,75.9,64.9,69,29.82,10.0,Calm,Calm,-,N/A,,Scattered Clouds,0,2013-09-14 01:56:00
10:56 PM,78.1,60.1,54,29.84,10.0,NNE,6.9,-,N/A,,Partly Cloudy,20,2013-09-14 02:56:00
11:56 PM,75.9,57.9,54,29.86,10.0,North,6.9,-,N/A,,Partly Cloudy,10,2013-09-14 03:56:00